メインページ
METAR-TAF:

METAR-TAF

空港 :

キングストン・ノーマン・ロジャース空港

キングストン, オンタリオ州, カナダ

緯度: 44-13N, 経度: 076-36W, 海抜: 93m

現時点の気象観測

当レポートは24分前の18:00(UTC)に作成
の風 6kt
気温 22°C
湿度 78%
気圧 1020 hPa
視程: 24.1km
高度2500ftの雲はほとんどない, 塔状積雲.
高度25000ftの雲はほとんどない

METAR: CYGK 261800Z 19006KT 15SM FEW025TCU FEW250 22/18 A3011 RMK TCU1CI1 TCU TR TCU DIST NE/SE SLP199 DENSITY ALT 1100FT

時間: 14:24 (18:24 UTC)

予報

当レポートは4時間46分前の13:38(UTC)に作成
予報は26日の 14時(UTC)から 27日の 02時(UTC)まで有効
の風 7kt
視程: 10km
高度6000ftの雲はほとんどない

TAF: CYGK 261338Z 2614/2702 18007KT P6SM FEW060 RMK NXT FCST BY 262000Z

4,000以上の空港の気象観測と天気予報(METAR報とTAF報)

利用可能な観測所は地図上に黄色い丸と赤い丸で示す。

丸の上にカーソルを重ねると観測所名を参照できる。

次にクリックすると気象観測と天気予報を参照できる。

マップの切り替え:黒色「×」印の緑ボタンをクリックして拡大、「-」印の緑ボタンをクリックして縮小、緑色の三角印をクリックして隣りの地図に切り替え


METAR-TAF: